Time;durP1;ratioP1;P1;durP2;ratioP2;P2;SDS_P1;SDS_P2;PMS_P1;PMS_P2;Temp;Humidity;BMP_temperature;BMP_pressure;BME280_temperature;BME280_humidity;BME280_pressure;Samples;Min_cycle;Max_cycle;Signal;HPM_P1;HPM_P2
2022/06/16 00:00:18;;;;;;;6.20;4.20;;;;;;;15.47;55.46;100674.89;108115;1277;21959;-75
2022/06/16 00:03:09;;;;;;;7.30;4.60;;;;;;;15.46;55.29;100675.16;109243;1276;22013;-76
2022/06/16 00:06:43;;;;;;;5.60;3.30;;;;;;;15.41;55.38;100674.77;109150;1275;22006;-76
2022/06/16 00:09:17;;;;;;;4.70;3.50;;;;;;;15.40;55.34;100674.90;108532;1278;22742;-76
2022/06/16 00:11:52;;;;;;;5.00;3.70;;;;;;;15.40;55.40;100676.09;108357;1276;21961;-75
2022/06/16 00:14:27;;;;;;;9.60;3.80;;;;;;;15.41;55.51;100671.84;109304;1275;22647;-75
2022/06/16 00:17:00;;;;;;;6.00;4.60;;;;;;;15.41;55.57;100670.81;108556;1276;22292;-76
2022/06/16 00:19:38;;;;;;;7.60;4.40;;;;;;;15.40;55.45;100669.38;108371;1279;23803;-77
2022/06/16 00:22:14;;;;;;;5.60;3.60;;;;;;;15.37;55.52;100666.06;108120;1276;23151;-76
2022/06/16 00:24:47;;;;;;;5.50;3.90;;;;;;;15.32;55.62;100663.44;108408;1276;21985;-76
2022/06/16 00:27:22;;;;;;;7.40;4.60;;;;;;;15.25;55.69;100661.46;108548;1267;22125;-76
2022/06/16 00:31:04;;;;;;;7.60;3.80;;;;;;;15.18;55.80;100659.80;109771;1260;21975;-78
2022/06/16 00:33:38;;;;;;;6.90;4.40;;;;;;;15.09;56.02;100659.58;109917;1270;21983;-76
2022/06/16 00:36:09;;;;;;;10.00;4.40;;;;;;;15.02;56.23;100652.30;109577;1270;22752;-75
2022/06/16 00:38:41;;;;;;;5.80;3.90;;;;;;;15.01;56.35;100655.61;109170;1267;21989;-78
2022/06/16 00:41:11;;;;;;;6.50;3.90;;;;;;;15.00;56.55;100654.09;109003;1265;23770;-78
2022/06/16 00:43:45;;;;;;;7.20;4.50;;;;;;;14.99;56.74;100651.39;109633;1260;21969;-76
2022/06/16 00:46:19;;;;;;;5.70;4.40;;;;;;;15.00;56.94;100651.48;109586;1261;21985;-76
2022/06/16 00:48:58;;;;;;;6.70;4.50;;;;;;;15.01;57.00;100651.48;109817;1260;21983;-77
2022/06/16 00:51:45;;;;;;;6.80;4.30;;;;;;;15.01;57.11;100648.48;109561;1262;21984;-78
2022/06/16 00:54:24;;;;;;;8.50;4.60;;;;;;;14.98;57.16;100644.70;109373;1262;22200;-75
2022/06/16 00:57:34;;;;;;;5.60;4.60;;;;;;;14.96;57.17;100644.77;109540;1267;21986;-76
2022/06/16 01:03:01;;;;;;;6.30;4.50;;;;;;;14.89;57.24;100641.83;109396;1268;21985;-75
2022/06/16 01:05:36;;;;;;;6.00;3.90;;;;;;;14.91;57.32;100640.87;108883;1267;23041;-76
2022/06/16 01:08:08;;;;;;;7.40;4.70;;;;;;;14.95;57.40;100642.14;109235;1267;22991;-77
2022/06/16 01:10:46;;;;;;;9.10;4.10;;;;;;;14.98;57.36;100639.83;109498;1258;24350;-75
2022/06/16 01:13:53;;;;;;;8.40;4.40;;;;;;;15.02;57.43;100639.88;110040;1258;23698;-76
2022/06/16 01:16:35;;;;;;;10.40;4.80;;;;;;;15.06;57.51;100640.61;110733;1253;21973;-75
2022/06/16 01:20:05;;;;;;;8.60;5.40;;;;;;;15.06;57.32;100636.89;110797;1251;22331;-75
2022/06/16 01:23:23;;;;;;;10.40;5.00;;;;;;;15.04;57.29;100632.86;109165;1267;23578;-76
2022/06/16 01:26:19;;;;;;;6.00;4.10;;;;;;;15.03;57.27;100633.20;108589;1273;23016;-75
2022/06/16 01:29:30;;;;;;;10.60;4.70;;;;;;;15.01;57.25;100633.73;108690;1273;22797;-76
2022/06/16 01:32:40;;;;;;;7.90;4.70;;;;;;;15.00;57.27;100632.67;108656;1273;22552;-76
2022/06/16 01:35:45;;;;;;;6.40;5.00;;;;;;;15.00;57.29;100632.97;108640;1273;23862;-77
2022/06/16 01:38:27;;;;;;;9.50;4.90;;;;;;;15.02;57.26;100628.00;109022;1273;21996;-76
2022/06/16 01:41:24;;;;;;;7.80;4.90;;;;;;;15.06;57.31;100626.39;108725;1272;22257;-76
2022/06/16 01:44:16;;;;;;;8.30;5.20;;;;;;;15.09;57.27;100620.07;108740;1273;21997;-77
2022/06/16 01:46:57;;;;;;;7.80;4.50;;;;;;;15.11;57.29;100616.55;108750;1267;22326;-76
2022/06/16 01:49:42;;;;;;;8.00;4.80;;;;;;;15.12;57.12;100612.95;109131;1267;22538;-76
2022/06/16 01:52:23;;;;;;;6.80;4.80;;;;;;;15.12;57.09;100611.67;108875;1267;23733;-76
2022/06/16 01:55:07;;;;;;;8.30;4.70;;;;;;;15.12;57.09;100612.41;108866;1271;22572;-77
2022/06/16 01:57:49;;;;;;;5.50;4.60;;;;;;;15.13;57.08;100609.92;109222;1265;22012;-76
2022/06/16 02:00:25;;;;;;;7.00;4.40;;;;;;;15.12;57.03;100613.39;109717;1256;23262;-76
2022/06/16 02:03:19;;;;;;;8.90;5.60;;;;;;;15.13;56.99;100610.63;109983;1256;21968;-75
2022/06/16 02:05:58;;;;;;;7.10;5.10;;;;;;;15.17;57.06;100610.58;109726;1258;21972;-77
2022/06/16 02:08:45;;;;;;;7.30;5.30;;;;;;;15.21;57.06;100610.83;110328;1256;21972;-77
2022/06/16 02:11:31;;;;;;;5.60;5.00;;;;;;;15.26;56.98;100615.98;109578;1261;21978;-76
2022/06/16 02:14:36;;;;;;;8.50;4.60;;;;;;;15.27;56.91;100615.86;110095;1259;23743;-76
2022/06/16 02:17:27;;;;;;;9.30;5.20;;;;;;;15.26;56.83;100612.41;110033;1256;21964;-76
2022/06/16 02:20:00;;;;;;;7.80;4.80;;;;;;;15.25;56.77;100610.90;109976;1257;21972;-76
2022/06/16 02:22:31;;;;;;;6.90;4.70;;;;;;;15.26;56.62;100610.48;110178;1257;23650;-76
2022/06/16 02:25:01;;;;;;;9.30;5.00;;;;;;;15.24;56.63;100608.31;110207;1257;21962;-76
2022/06/16 02:27:31;;;;;;;7.20;5.20;;;;;;;15.23;56.75;100611.03;110059;1257;21963;-76
2022/06/16 02:30:06;;;;;;;5.70;4.70;;;;;;;15.23;56.61;100609.44;110496;1251;22019;-76
2022/06/16 02:33:01;;;;;;;8.10;4.90;;;;;;;15.22;56.64;100607.42;110765;1251;22044;-75
2022/06/16 02:35:50;;;;;;;9.90;5.30;;;;;;;15.21;56.71;100611.09;110806;1251;21961;-76
2022/06/16 02:39:04;;;;;;;7.80;5.00;;;;;;;15.21;56.87;100609.88;110735;1253;22032;-76
2022/06/16 02:41:55;;;;;;;8.10;5.40;;;;;;;15.19;57.01;100605.30;109967;1259;22906;-76
2022/06/16 02:45:04;;;;;;;7.20;4.60;;;;;;;15.16;56.88;100604.23;109979;1259;23601;-75
2022/06/16 02:48:15;;;;;;;6.90;4.70;;;;;;;15.09;56.99;100601.17;110249;1259;21973;-76
2022/06/16 02:51:43;;;;;;;6.50;4.70;;;;;;;15.01;57.19;100599.02;110185;1259;23717;-76
2022/06/16 02:54:26;;;;;;;7.50;5.00;;;;;;;14.94;57.32;100599.40;109887;1259;23681;-76
2022/06/16 02:57:44;;;;;;;5.90;4.80;;;;;;;14.91;57.41;100599.16;109865;1259;22126;-76
2022/06/16 03:00:25;;;;;;;6.90;5.50;;;;;;;14.89;57.46;100600.38;109651;1259;21972;-76
2022/06/16 03:02:55;;;;;;;9.40;5.10;;;;;;;14.89;57.63;100598.00;109828;1259;22225;-75
2022/06/16 03:05:26;;;;;;;7.70;5.30;;;;;;;14.94;57.63;100594.86;109817;1259;21996;-78
2022/06/16 03:07:59;;;;;;;9.10;5.10;;;;;;;14.97;57.69;100593.70;109187;1264;21983;-76
2022/06/16 03:13:19;;;;;;;7.50;5.10;;;;;;;14.99;57.65;100592.33;109273;1263;22901;-77
2022/06/16 03:15:50;;;;;;;;;;;;;;;14.99;57.69;100590.23;109172;1265;21972;-76
2022/06/16 03:18:26;;;;;;;5.90;4.30;;;;;;;14.92;57.96;100590.95;109840;1257;22877;-77
2022/06/16 03:21:02;;;;;;;7.30;4.70;;;;;;;14.91;57.84;100591.59;109882;1257;21934;-76
2022/06/16 03:23:38;;;;;;;7.60;5.30;;;;;;;14.91;57.70;100589.42;109255;1263;21979;-76
2022/06/16 03:26:10;;;;;;;8.40;4.70;;;;;;;14.93;57.71;100586.58;109071;1264;21942;-75
2022/06/16 03:28:46;;;;;;;21.40;19.10;;;;;;;14.95;57.65;100585.02;108850;1270;22008;-75
2022/06/16 03:31:20;;;;;;;8.00;4.70;;;;;;;14.99;57.69;100586.47;108876;1270;22696;-76
2022/06/16 03:33:58;;;;;;;8.50;5.00;;;;;;;15.05;57.76;100586.94;108753;1270;22647;-76
2022/06/16 03:36:34;;;;;;;7.30;5.00;;;;;;;15.13;57.72;100584.96;108896;1270;24431;-76
2022/06/16 03:39:09;;;;;;;5.60;4.40;;;;;;;15.20;57.65;100586.20;108870;1270;23705;-76
2022/06/16 03:41:52;;;;;;;8.80;4.50;;;;;;;15.24;57.38;100585.66;108818;1270;23716;-76
2022/06/16 03:44:29;;;;;;;7.60;4.70;;;;;;;15.23;57.17;100585.04;108930;1266;22079;-76
2022/06/16 03:46:59;;;;;;;10.30;5.30;;;;;;;15.24;57.28;100581.23;109214;1260;21966;-76
2022/06/16 03:49:34;;;;;;;4.50;3.90;;;;;;;15.22;57.07;100581.17;110443;1253;23694;-75
2022/06/16 03:52:10;;;;;;;10.20;4.70;;;;;;;15.20;57.27;100581.90;110493;1253;23685;-76
2022/06/16 03:54:56;;;;;;;5.20;4.00;;;;;;;15.19;57.35;100579.89;110569;1251;23036;-76
2022/06/16 03:57:36;;;;;;;8.20;4.50;;;;;;;15.20;57.42;100577.97;110535;1253;23590;-76
2022/06/16 04:00:16;;;;;;;6.70;4.80;;;;;;;15.24;57.51;100578.73;110577;1251;22458;-76
2022/06/16 04:03:59;;;;;;;4.90;4.20;;;;;;;15.32;57.67;100574.02;110333;1256;22035;-76
2022/06/16 04:05:41;;;;;;;6.50;4.60;;;;;;;15.41;57.64;100572.86;110298;1256;23715;-77
2022/06/16 04:08:20;;;;;;;7.60;4.30;;;;;;;15.47;57.64;100570.98;110271;1256;21982;-77
2022/06/16 04:10:57;;;;;;;8.40;5.10;;;;;;;15.53;57.65;100571.01;110196;1256;23831;-78
2022/06/16 04:13:32;;;;;;;11.00;5.20;;;;;;;15.59;57.55;100573.42;109740;1257;22081;-77
2022/06/16 04:16:05;;;;;;;8.00;5.20;;;;;;;15.63;57.61;100572.96;109416;1262;22200;-77
2022/06/16 04:18:35;;;;;;;6.20;5.10;;;;;;;15.66;57.54;100569.66;109331;1262;22028;-77
2022/06/16 04:21:09;;;;;;;6.10;5.40;;;;;;;15.67;57.40;100567.97;109540;1256;22551;-76
2022/06/16 04:23:49;;;;;;;6.80;5.10;;;;;;;15.68;57.48;100568.10;110005;1258;23702;-74
2022/06/16 04:26:21;;;;;;;8.60;5.20;;;;;;;15.70;57.44;100566.51;110013;1257;22439;-76
2022/06/16 04:28:52;;;;;;;6.80;5.10;;;;;;;15.74;57.38;100564.79;110092;1256;22038;-76
2022/06/16 04:31:30;;;;;;;7.50;5.60;;;;;;;15.80;57.47;100558.20;110268;1256;23051;-77
2022/06/16 04:34:05;;;;;;;7.80;5.10;;;;;;;15.88;57.69;100556.63;110427;1250;23012;-76
2022/06/16 04:36:43;;;;;;;9.30;7.70;;;;;;;15.99;57.75;100556.26;110735;1250;22069;-76
2022/06/16 04:39:22;;;;;;;6.70;5.00;;;;;;;16.07;57.54;100552.59;110511;1253;23770;-77
2022/06/16 04:42:00;;;;;;;7.90;5.10;;;;;;;16.12;57.43;100551.93;109796;1259;22327;-78
2022/06/16 04:44:34;;;;;;;6.00;4.70;;;;;;;16.15;57.35;100553.09;109979;1257;22491;-77
2022/06/16 04:47:09;;;;;;;10.70;4.90;;;;;;;16.20;57.18;100552.80;110365;1257;22074;-76
2022/06/16 04:49:53;;;;;;;6.40;4.60;;;;;;;16.27;57.36;100548.33;109965;1260;22023;-75
2022/06/16 04:52:22;;;;;;;6.50;5.30;;;;;;;16.39;57.44;100547.83;109835;1260;23596;-76
2022/06/16 04:55:01;;;;;;;6.80;4.80;;;;;;;16.54;57.25;100543.61;109668;1262;22013;-76
2022/06/16 04:57:57;;;;;;;5.70;4.20;;;;;;;16.68;56.59;100537.52;109157;1264;21991;-76
2022/06/16 05:00:54;;;;;;;6.70;4.20;;;;;;;16.73;56.14;100533.96;108893;1264;23829;-76
2022/06/16 05:04:19;;;;;;;6.70;4.20;;;;;;;16.82;55.99;100527.74;109355;1263;22039;-76
2022/06/16 05:07:12;;;;;;;7.50;4.20;;;;;;;16.95;55.98;100526.85;109524;1262;22897;-76
2022/06/16 05:10:03;;;;;;;7.10;4.60;;;;;;;17.09;55.71;100524.52;109135;1267;21976;-75
2022/06/16 05:12:53;;;;;;;9.10;4.80;;;;;;;17.23;55.38;100522.36;108928;1267;23613;-77
2022/06/16 05:15:45;;;;;;;7.50;5.00;;;;;;;17.37;55.39;100519.27;108770;1273;23707;-76
2022/06/16 05:18:34;;;;;;;9.70;5.00;;;;;;;17.59;55.49;100516.42;108523;1273;23076;-75
2022/06/16 05:21:17;;;;;;;7.00;3.90;;;;;;;17.81;55.43;100516.21;108445;1273;24048;-77
2022/06/16 05:24:07;;;;;;;11.30;4.20;;;;;;;18.06;54.92;100512.94;108654;1273;23065;-75
2022/06/16 05:27:01;;;;;;;7.20;4.40;;;;;;;18.32;54.54;100510.22;108509;1273;21986;-75
2022/06/16 05:29:45;;;;;;;4.70;3.70;;;;;;;18.58;53.78;100507.17;109027;1267;22450;-77
2022/06/16 05:32:30;;;;;;;5.50;3.80;;;;;;;18.81;53.49;100509.00;108887;1267;22008;-75
2022/06/16 05:35:13;;;;;;;7.60;3.50;;;;;;;19.05;53.05;100509.88;109544;1261;23827;-75
2022/06/16 05:37:55;;;;;;;;;;;;;;;19.32;52.51;100504.48;109656;1260;21976;-76
2022/06/16 05:41:07;;;;;;;6.30;3.60;;;;;;;19.50;51.88;100502.89;109816;1261;21979;-76
2022/06/16 05:44:01;;;;;;;7.10;3.60;;;;;;;19.71;51.39;100501.77;110339;1250;24323;-75
2022/06/16 05:47:19;;;;;;;6.00;3.50;;;;;;;19.99;50.91;100497.27;110406;1256;22002;-75
2022/06/16 05:50:00;;;;;;;5.10;3.60;;;;;;;20.35;50.58;100498.80;110002;1257;24389;-76
2022/06/16 05:52:31;;;;;;;6.40;3.40;;;;;;;20.72;49.75;100498.35;110326;1256;21980;-75
2022/06/16 05:55:14;;;;;;;6.80;3.60;;;;;;;21.04;48.74;100494.63;110354;1257;21990;-76
2022/06/16 05:57:44;;;;;;;5.80;3.30;;;;;;;21.32;47.86;100492.95;109401;1261;22017;-75
2022/06/16 06:00:18;;;;;;;;;;;;;;;21.61;46.97;100492.58;109541;1263;23690;-76
2022/06/16 06:03:01;;;;;;;5.80;3.20;;;;;;;21.84;46.46;100492.45;109289;1266;23695;-75
2022/06/16 06:05:38;;;;;;;6.20;3.00;;;;;;;22.15;46.07;100494.25;108893;1267;21982;-76
2022/06/16 06:16:46;;;;;;;5.70;3.00;;;;;;;23.29;42.11;100483.84;109251;1265;22038;-78
2022/06/16 06:19:23;;;;;;;6.60;3.10;;;;;;;23.45;41.48;100481.38;108607;1272;23707;-76
2022/06/16 06:22:13;;;;;;;8.50;4.20;;;;;;;23.62;41.37;100480.79;108652;1267;243503;-76
2022/06/16 06:24:55;;;;;;;8.30;3.00;;;;;;;23.84;41.10;100479.34;109314;1264;23597;-77
2022/06/16 06:27:47;;;;;;;6.10;3.70;;;;;;;24.07;40.73;100479.91;109806;1259;23612;-76
2022/06/16 06:30:24;;;;;;;7.90;3.60;;;;;;;24.29;40.16;100479.21;110064;1258;23049;-77
2022/06/16 06:32:56;;;;;;;7.60;3.00;;;;;;;24.58;39.68;100485.48;110283;1258;22201;-76
2022/06/16 06:35:29;;;;;;;6.20;3.50;;;;;;;24.80;39.05;100487.25;109330;1264;23609;-76
2022/06/16 06:38:06;;;;;;;6.30;3.10;;;;;;;25.02;38.76;100483.88;109462;1264;23095;-76
2022/06/16 06:40:41;;;;;;;5.00;3.20;;;;;;;25.20;38.02;100480.55;109357;1264;22194;-75
2022/06/16 06:43:19;;;;;;;;;;;;;;;25.38;37.32;100482.29;109400;1258;21959;-76
2022/06/16 06:46:04;;;;;;;7.30;4.00;;;;;;;25.35;36.78;100481.67;110016;1259;22014;-76
2022/06/16 06:48:58;;;;;;;4.30;2.80;;;;;;;25.62;37.48;100485.59;109889;1257;21972;-76
2022/06/16 06:51:30;;;;;;;6.20;3.60;;;;;;;26.03;37.39;100486.39;109935;1261;21971;-77
2022/06/16 06:54:02;;;;;;;4.80;3.50;;;;;;;26.36;36.92;100482.39;110485;1250;23056;-76
2022/06/16 06:56:35;;;;;;;5.80;2.50;;;;;;;26.59;35.84;100478.10;110344;1256;23573;-76
2022/06/16 06:59:18;;;;;;;5.50;3.40;;;;;;;26.77;35.63;100476.30;109620;1260;25036;-76
2022/06/16 07:01:51;;;;;;;5.60;3.00;;;;;;;27.13;35.67;100471.80;109959;1262;21965;-76
2022/06/16 07:04:23;;;;;;;7.10;3.40;;;;;;;27.37;34.34;100465.79;109645;1261;23598;-76
2022/06/16 07:06:53;;;;;;;7.20;3.30;;;;;;;27.32;33.78;100467.92;109842;1261;21969;-76
2022/06/16 07:09:30;;;;;;;6.40;3.00;;;;;;;27.50;34.35;100469.54;109571;1261;21965;-75
2022/06/16 07:12:00;;;;;;;10.20;3.30;;;;;;;27.65;33.68;100467.02;109791;1261;23717;-75
2022/06/16 07:14:30;;;;;;;4.80;2.90;;;;;;;27.53;33.29;100471.91;109813;1260;21970;-75
2022/06/16 07:17:03;;;;;;;5.40;3.30;;;;;;;27.21;33.30;100468.81;109342;1261;21978;-75
2022/06/16 07:19:35;;;;;;;6.40;3.40;;;;;;;26.96;34.16;100467.44;109791;1261;23048;-76
2022/06/16 07:22:08;;;;;;;6.50;3.30;;;;;;;26.87;34.81;100470.92;110063;1256;22197;-77
2022/06/16 07:24:39;;;;;;;7.40;3.20;;;;;;;26.91;35.36;100470.31;110359;1256;21988;-76
2022/06/16 07:27:12;;;;;;;5.40;3.00;;;;;;;27.00;35.43;100466.77;110197;1256;21985;-75
2022/06/16 07:29:46;;;;;;;6.40;3.60;;;;;;;27.26;34.99;100463.21;110239;1256;22032;-75
2022/06/16 07:32:19;;;;;;;8.10;2.90;;;;;;;27.21;34.07;100461.71;109939;1262;21958;-76
2022/06/16 07:34:49;;;;;;;4.70;3.30;;;;;;;27.13;34.64;100460.86;109965;1256;23631;-75
2022/06/16 07:37:19;;;;;;;4.40;2.60;;;;;;;27.10;34.69;100464.88;110420;1256;21960;-76
2022/06/16 07:39:51;;;;;;;6.50;2.90;;;;;;;27.09;35.01;100462.21;109861;1259;21965;-76
2022/06/16 07:42:27;;;;;;;3.60;2.50;;;;;;;27.13;34.91;100464.28;110042;1259;23650;-75
2022/06/16 07:45:00;;;;;;;7.10;3.80;;;;;;;27.19;34.70;100463.56;110037;1259;23706;-76
2022/06/16 07:47:30;;;;;;;6.40;2.90;;;;;;;27.29;34.95;100461.96;110215;1259;22085;-76
2022/06/16 07:50:08;;;;;;;5.00;2.90;;;;;;;27.43;34.85;100462.02;109994;1256;21960;-76
2022/06/16 07:52:49;;;;;;;6.20;3.10;;;;;;;27.53;34.77;100460.41;110031;1259;22001;-75
2022/06/16 07:55:19;;;;;;;5.70;2.80;;;;;;;27.72;34.67;100457.13;110288;1256;21963;-75
2022/06/16 07:57:52;;;;;;;4.90;2.50;;;;;;;27.90;34.12;100456.14;110424;1250;21953;-76
2022/06/16 08:00:31;;;;;;;4.40;2.50;;;;;;;27.96;33.54;100455.77;110637;1253;23569;-76
2022/06/16 08:03:00;;;;;;;4.70;2.90;;;;;;;28.07;33.42;100461.06;110667;1253;23689;-76
2022/06/16 08:05:34;;;;;;;4.90;2.60;;;;;;;28.25;33.10;100460.98;110735;1250;21958;-75
2022/06/16 08:08:14;;;;;;;4.50;2.90;;;;;;;28.26;32.29;100458.87;110943;1250;22040;-76
2022/06/16 08:10:43;;;;;;;5.00;2.80;;;;;;;28.30;32.77;100461.45;110618;1250;23697;-75
2022/06/16 08:13:13;;;;;;;5.50;2.80;;;;;;;28.46;32.54;100457.65;110700;1250;21957;-76
2022/06/16 08:15:45;;;;;;;5.20;2.70;;;;;;;28.67;32.62;100459.86;109845;1258;21965;-76
2022/06/16 08:18:25;;;;;;;5.40;2.80;;;;;;;28.99;32.29;100462.58;110252;1259;21984;-76
2022/06/16 08:20:57;;;;;;;4.50;3.20;;;;;;;29.31;32.25;100463.54;110038;1258;22081;-76
2022/06/16 08:23:29;;;;;;;5.50;3.00;;;;;;;29.36;31.26;100466.24;109405;1264;22209;-75
2022/06/16 08:26:03;;;;;;;5.60;2.70;;;;;;;29.42;31.63;100464.11;109599;1264;23691;-77
2022/06/16 08:28:40;;;;;;;7.40;2.60;;;;;;;29.49;31.12;100465.54;109561;1264;22031;-76
2022/06/16 08:31:13;;;;;;;6.40;2.60;;;;;;;29.56;31.60;100466.45;109612;1264;21962;-76
2022/06/16 08:33:49;;;;;;;6.20;2.60;;;;;;;29.76;31.44;100463.77;109934;1256;22079;-76
2022/06/16 08:36:23;;;;;;;5.80;2.10;;;;;;;30.10;30.94;100458.21;110254;1256;22002;-76
2022/06/16 08:38:55;;;;;;;3.10;2.80;;;;;;;30.20;30.07;100455.79;110324;1256;23110;-76
2022/06/16 08:41:47;;;;;;;6.60;2.70;;;;;;;30.25;30.27;100455.49;109977;1261;21966;-76
2022/06/16 08:44:41;;;;;;;4.30;2.40;;;;;;;30.35;30.22;100455.88;110044;1260;22738;-77
2022/06/16 08:47:31;;;;;;;5.00;2.30;;;;;;;30.61;30.40;100458.21;109985;1262;21969;-76
2022/06/16 08:50:47;;;;;;;4.60;2.40;;;;;;;30.94;29.60;100459.03;110540;1254;22069;-77
2022/06/16 08:53:48;;;;;;;5.70;2.20;;;;;;;31.07;29.41;100460.36;109119;1267;22008;-77
2022/06/16 08:57:05;;;;;;;4.90;2.90;;;;;;;31.14;29.19;100461.20;108945;1267;21981;-82
2022/06/16 08:59:52;;;;;;;4.20;2.50;;;;;;;31.07;29.20;100458.94;108563;1273;21982;-78
2022/06/16 09:02:55;;;;;;;4.40;2.20;;;;;;;31.01;29.60;100456.72;108725;1272;22933;-78
2022/06/16 09:05:53;;;;;;;12.10;2.20;;;;;;;31.00;29.12;100457.51;108795;1273;21959;-78
2022/06/16 09:08:59;;;;;;;5.40;2.30;;;;;;;31.01;29.53;100457.81;108739;1270;22075;-79
2022/06/16 09:12:33;;;;;;;4.50;2.70;;;;;;;31.12;29.11;100456.67;108990;1267;21981;-78
2022/06/16 09:15:14;;;;;;;6.20;2.80;;;;;;;31.24;29.08;100459.11;108561;1273;21984;-79
2022/06/16 09:18:44;;;;;;;5.50;2.50;;;;;;;31.36;29.38;100453.32;108460;1276;22378;-77
2022/06/16 09:22:09;;;;;;;5.20;2.90;;;;;;;31.68;28.66;100456.92;108088;1280;22003;-78
2022/06/16 09:25:51;;;;;;;5.60;2.30;;;;;;;31.79;29.13;100457.16;107711;1287;23101;-78
2022/06/16 09:29:06;;;;;;;4.40;3.00;;;;;;;32.20;28.19;100453.79;107966;1282;22927;-78
2022/06/16 09:31:54;;;;;;;4.00;2.60;;;;;;;32.44;27.19;100448.29;107862;1282;22790;-78
2022/06/16 09:34:58;;;;;;;8.30;3.20;;;;;;;32.44;27.61;100450.15;108252;1276;21982;-77
2022/06/16 09:38:20;;;;;;;5.60;2.90;;;;;;;32.39;27.55;100451.80;108836;1270;23060;-77
2022/06/16 09:41:04;;;;;;;4.50;2.70;;;;;;;32.17;28.02;100446.24;108652;1272;23727;-78
2022/06/16 09:43:48;;;;;;;7.50;2.30;;;;;;;32.15;27.84;100449.80;108692;1273;21991;-78
2022/06/16 09:46:28;;;;;;;6.50;2.80;;;;;;;31.73;27.18;100445.05;108485;1273;22546;-77
2022/06/16 09:49:08;;;;;;;4.70;2.60;;;;;;;31.42;27.82;100448.88;108353;1279;23084;-78
2022/06/16 09:52:13;;;;;;;4.40;2.50;;;;;;;31.10;28.26;100444.76;108367;1279;22518;-77
2022/06/16 09:54:55;;;;;;;3.90;2.50;;;;;;;30.91;28.92;100440.81;108132;1279;21993;-77
2022/06/16 09:57:36;;;;;;;7.20;2.70;;;;;;;30.73;28.83;100445.77;108213;1276;23618;-78
2022/06/16 10:00:13;;;;;;;8.60;6.20;;;;;;;30.56;29.05;100441.91;108560;1270;21980;-78
2022/06/16 10:03:02;;;;;;;4.50;2.40;;;;;;;30.65;29.38;100438.63;108919;1267;21995;-77
2022/06/16 10:06:00;;;;;;;7.40;2.80;;;;;;;30.84;29.36;100436.95;109103;1270;21990;-78
2022/06/16 10:09:10;;;;;;;4.90;3.00;;;;;;;30.84;28.60;100432.48;109304;1264;23590;-78
2022/06/16 10:12:00;;;;;;;4.80;2.10;;;;;;;30.70;28.48;100429.52;108768;1270;23074;-77
2022/06/16 10:14:56;;;;;;;3.90;2.40;;;;;;;30.51;28.87;100427.17;108711;1272;23703;-77
2022/06/16 10:17:29;;;;;;;3.20;2.30;;;;;;;30.43;29.14;100427.40;109071;1264;23743;-77
2022/06/16 10:20:04;;;;;;;5.30;2.50;;;;;;;30.29;28.87;100428.17;109358;1264;22436;-77
2022/06/16 10:22:43;;;;;;;5.40;2.20;;;;;;;30.05;28.98;100424.23;108886;1273;23032;-77
2022/06/16 10:25:40;;;;;;;3.70;2.50;;;;;;;30.03;29.54;100423.61;108759;1272;21989;-78
2022/06/16 10:28:38;;;;;;;4.60;2.40;;;;;;;30.11;29.18;100422.34;108755;1272;23712;-80
2022/06/16 10:31:09;;;;;;;3.10;2.10;;;;;;;30.08;29.14;100418.80;108724;1273;21991;-77
2022/06/16 10:33:56;;;;;;;5.70;3.30;;;;;;;30.04;29.41;100421.45;109139;1267;21993;-78
2022/06/16 10:36:34;;;;;;;4.20;2.30;;;;;;;30.15;29.56;100424.61;109516;1261;21993;-78
2022/06/16 10:39:22;;;;;;;5.10;2.50;;;;;;;30.27;29.83;100423.09;109383;1264;21981;-78
2022/06/16 10:42:11;;;;;;;4.20;2.70;;;;;;;30.40;30.07;100421.84;110020;1259;21933;-77
2022/06/16 10:44:54;;;;;;;5.00;2.80;;;;;;;30.52;29.91;100422.17;110539;1256;22402;-78
2022/06/16 10:47:41;;;;;;;5.40;2.30;;;;;;;30.52;29.73;100425.98;110294;1256;22943;-78
2022/06/16 10:50:24;;;;;;;3.40;2.30;;;;;;;30.46;29.92;100426.55;110389;1256;21990;-78
2022/06/16 10:53:07;;;;;;;6.00;2.50;;;;;;;30.28;29.04;100426.11;110212;1259;23020;-78
2022/06/16 10:55:50;;;;;;;3.90;2.10;;;;;;;30.11;29.35;100428.32;110053;1259;23681;-78
2022/06/16 10:58:31;;;;;;;5.70;2.50;;;;;;;30.07;30.13;100428.30;110311;1256;21963;-77
2022/06/16 11:01:18;;;;;;;5.70;2.40;;;;;;;30.09;30.06;100426.89;110539;1256;21989;-78
2022/06/16 11:04:01;;;;;;;5.30;2.50;;;;;;;30.07;30.19;100426.21;110362;1256;21953;-77
2022/06/16 11:06:39;;;;;;;4.00;2.00;;;;;;;29.98;30.29;100417.58;110559;1255;21953;-77
2022/06/16 11:09:17;;;;;;;5.40;2.50;;;;;;;29.90;30.21;100412.73;110430;1256;23587;-77
2022/06/16 11:12:03;;;;;;;6.30;2.80;;;;;;;29.83;30.34;100414.27;110481;1250;21953;-78
2022/06/16 11:14:42;;;;;;;3.80;2.40;;;;;;;29.78;29.91;100414.56;110836;1250;22385;-78
2022/06/16 11:17:19;;;;;;;3.80;2.00;;;;;;;29.69;29.62;100417.41;110835;1250;23606;-78
2022/06/16 11:20:13;;;;;;;3.90;2.40;;;;;;;29.54;29.43;100417.15;110843;1250;22296;-78
2022/06/16 11:22:50;;;;;;;7.60;2.60;;;;;;;29.44;29.70;100415.53;110734;1250;23669;-79
2022/06/16 11:25:36;;;;;;;4.20;2.00;;;;;;;29.33;29.55;100410.39;110673;1250;22042;-77
2022/06/16 11:28:06;;;;;;;5.00;2.20;;;;;;;29.27;29.65;100407.96;110726;1250;24247;-78
2022/06/16 11:30:45;;;;;;;8.00;3.60;;;;;;;29.21;29.92;100402.33;110740;1250;21969;-78
2022/06/16 11:37:01;;;;;;;4.30;2.90;;;;;;;29.14;30.14;100398.02;110793;1250;21960;-77
2022/06/16 11:40:00;;;;;;;2.80;2.10;;;;;;;29.13;30.35;100395.73;110794;1250;21966;-77
2022/06/16 11:42:47;;;;;;;4.60;2.20;;;;;;;29.14;29.37;100392.89;110792;1251;21963;-77
2022/06/16 11:45:45;;;;;;;8.00;4.10;;;;;;;29.13;29.41;100386.10;110217;1256;23080;-78
2022/06/16 11:48:43;;;;;;;4.30;2.60;;;;;;;29.10;29.70;100384.84;110317;1256;23650;-78
2022/06/16 11:51:35;;;;;;;3.70;2.30;;;;;;;29.09;29.76;100378.86;110212;1256;21968;-78
2022/06/16 11:54:51;;;;;;;5.00;1.80;;;;;;;29.10;29.42;100379.90;110153;1259;21977;-77
2022/06/16 11:57:56;;;;;;;5.70;2.40;;;;;;;29.03;29.06;100375.98;109209;1266;21976;-78
2022/06/16 12:00:42;;;;;;;7.00;2.60;;;;;;;28.97;29.70;100371.80;109062;1267;22456;-78
2022/06/16 12:04:12;;;;;;;12.70;8.60;;;;;;;28.98;29.85;100372.71;109044;1267;23102;-77
2022/06/16 12:07:15;;;;;;;9.20;7.90;;;;;;;29.00;30.17;100363.08;108807;1270;23822;-77
2022/06/16 12:09:56;;;;;;;5.50;2.70;;;;;;;28.99;30.08;100365.86;108683;1270;21981;-78
2022/06/16 12:12:51;;;;;;;5.30;2.70;;;;;;;28.99;30.09;100361.63;108805;1270;22097;-78
2022/06/16 12:15:49;;;;;;;5.80;2.60;;;;;;;29.00;30.04;100355.36;108783;1270;23052;-78
2022/06/16 12:18:45;;;;;;;5.30;2.80;;;;;;;29.01;29.98;100355.02;108841;1270;21989;-77
2022/06/16 12:21:39;;;;;;;5.70;2.10;;;;;;;28.97;30.17;100353.80;108942;1267;21985;-78
2022/06/16 12:24:43;;;;;;;3.00;2.20;;;;;;;28.97;30.27;100359.95;109009;1263;23707;-76
2022/06/16 12:27:36;;;;;;;5.80;2.10;;;;;;;29.00;30.40;100363.78;109603;1262;21974;-78
2022/06/16 12:30:35;;;;;;;5.60;2.20;;;;;;;29.01;30.13;100356.82;109591;1261;21965;-77
2022/06/16 12:33:34;;;;;;;7.00;1.90;;;;;;;29.01;29.83;100355.96;109666;1253;23060;-78
2022/06/16 12:36:22;;;;;;;5.40;1.90;;;;;;;29.09;29.56;100347.05;110776;1250;22375;-78
2022/06/16 12:39:20;;;;;;;3.40;1.80;;;;;;;29.16;28.87;100347.02;110017;1259;21966;-77
2022/06/16 12:42:08;;;;;;;4.10;1.70;;;;;;;29.17;28.32;100351.40;110051;1259;23032;-77
2022/06/16 12:45:04;;;;;;;8.70;8.00;;;;;;;29.15;27.74;100347.45;110246;1259;22903;-77
2022/06/16 12:48:01;;;;;;;5.20;4.50;;;;;;;29.16;27.45;100340.33;110189;1257;24191;-78
2022/06/16 12:50:42;;;;;;;1.90;1.40;;;;;;;29.17;27.03;100336.89;110196;1257;22030;-78
2022/06/16 12:53:38;;;;;;;4.70;3.90;;;;;;;29.10;26.32;100338.98;110501;1257;21956;-77
2022/06/16 12:56:47;;;;;;;4.40;1.90;;;;;;;28.99;26.16;100330.19;110337;1254;22817;-77